Time,TemperatureF,DewpointF,PressureIn,WindDirection,WindDirectionDegrees,WindSpeedMPH,WindSpeedGustMPH,Humidity,HourlyPrecipIn,Conditions,Clouds,dailyrainin,SoftwareType,DateUTC
2013-06-27 00:15:00,68.2,61.8,29.52,South,186,0.0,0.0,80,0.00,,,0.00,Wunderground v.1.12,2013-06-27 04:15:00,
2013-06-27 00:45:00,67.5,61.1,29.52,South,186,0.0,0.0,80,0.00,,,0.00,Wunderground v.1.12,2013-06-27 04:45:00,
2013-06-27 01:15:00,66.9,60.5,29.51,South,186,0.0,0.0,80,0.00,,,0.00,Wunderground v.1.12,2013-06-27 05:15:00,
2013-06-27 01:45:00,65.9,59.9,29.51,South,186,0.0,0.0,81,0.00,,,0.00,Wunderground v.1.12,2013-06-27 05:45:00,
2013-06-27 02:15:00,65.4,59.8,29.51,South,185,0.0,0.0,82,0.00,,,0.00,Wunderground v.1.12,2013-06-27 06:15:00,
2013-06-27 02:45:00,65.0,59.7,29.51,South,185,0.0,0.0,83,0.00,,,0.00,Wunderground v.1.12,2013-06-27 06:45:00,
2013-06-27 03:15:00,64.7,59.4,29.50,South,185,0.0,0.0,83,0.00,,,0.00,Wunderground v.1.12,2013-06-27 07:15:00,
2013-06-27 03:45:00,64.5,59.6,29.51,South,185,0.0,0.0,84,0.00,,,0.00,Wunderground v.1.12,2013-06-27 07:45:00,
2013-06-27 04:15:00,64.2,59.3,29.51,South,186,0.0,0.0,84,0.00,,,0.00,Wunderground v.1.12,2013-06-27 08:15:00,
2013-06-27 04:45:00,63.7,59.1,29.52,South,185,0.0,0.0,85,0.00,,,0.00,Wunderground v.1.12,2013-06-27 08:45:00,
2013-06-27 05:15:00,63.5,59.2,29.52,South,185,0.0,0.0,86,0.00,,,0.00,Wunderground v.1.12,2013-06-27 09:15:00,
2013-06-27 05:45:00,64.2,59.9,29.52,South,185,0.0,0.0,86,0.00,,,0.00,Wunderground v.1.12,2013-06-27 09:45:00,
2013-06-27 06:15:00,65.2,61.2,29.52,South,185,2.0,2.0,87,0.00,,,0.00,Wunderground v.1.12,2013-06-27 10:15:00,
2013-06-27 06:45:00,66.1,61.8,29.52,South,185,0.0,0.0,86,0.00,,,0.00,Wunderground v.1.12,2013-06-27 10:45:00,
2013-06-27 07:15:00,67.9,63.2,29.52,South,185,0.0,0.0,85,0.00,,,0.00,Wunderground v.1.12,2013-06-27 11:15:00,
2013-06-27 07:45:00,69.8,64.4,29.52,South,186,0.0,0.0,83,0.00,,,0.00,Wunderground v.1.12,2013-06-27 11:45:00,
2013-06-27 08:15:00,72.6,65.0,29.52,South,186,1.0,1.0,77,0.00,,,0.00,Wunderground v.1.12,2013-06-27 12:15:00,
2013-06-27 08:45:00,75.6,66.3,29.52,South,187,0.0,0.0,73,0.00,,,0.00,Wunderground v.1.12,2013-06-27 12:45:00,
2013-06-27 09:15:00,76.5,66.8,29.52,South,187,0.0,0.0,72,0.00,,,0.00,Wunderground v.1.12,2013-06-27 13:15:00,
2013-06-27 09:45:00,79.3,68.2,29.52,South,187,0.0,0.0,69,0.00,,,0.00,Wunderground v.1.12,2013-06-27 13:45:00,
2013-06-27 10:15:00,77.9,67.3,29.52,South,187,0.0,0.0,70,0.00,,,0.00,Wunderground v.1.12,2013-06-27 14:15:00,
2013-06-27 10:45:00,79.8,67.4,29.52,South,187,0.0,0.0,66,0.00,,,0.00,Wunderground v.1.12,2013-06-27 14:45:00,
2013-06-27 11:15:00,80.6,68.2,29.51,South,187,0.0,0.0,66,0.00,,,0.00,Wunderground v.1.12,2013-06-27 15:15:00,
2013-06-27 11:45:00,82.4,69.0,29.51,South,185,0.0,0.0,64,0.00,,,0.00,Wunderground v.1.12,2013-06-27 15:45:00,
2013-06-27 12:15:00,84.0,68.6,29.51,South,186,0.0,0.0,60,0.00,,,0.00,Wunderground v.1.12,2013-06-27 16:15:00,
2013-06-27 12:45:00,82.4,68.5,29.51,South,186,0.0,0.0,63,0.00,,,0.00,Wunderground v.1.12,2013-06-27 16:45:00,
2013-06-27 13:15:00,84.5,64.4,29.49,SSE,149,0.0,0.0,51,0.00,,,0.00,Wunderground v.1.12,2013-06-27 17:15:00,
2013-06-27 13:45:00,83.7,64.8,29.49,SSE,149,0.0,0.0,53,0.00,,,0.00,Wunderground v.1.12,2013-06-27 17:45:00,
2013-06-27 14:15:00,83.9,64.4,29.49,SSE,150,2.0,2.0,52,0.00,,,0.00,Wunderground v.1.12,2013-06-27 18:15:00,
2013-06-27 14:45:00,84.0,64.5,29.49,SSE,150,4.0,4.0,52,0.00,,,0.00,Wunderground v.1.12,2013-06-27 18:45:00,
2013-06-27 15:15:00,83.4,65.5,29.48,SSE,149,0.0,0.0,55,0.00,,,0.00,Wunderground v.1.12,2013-06-27 19:15:00,
2013-06-27 15:45:00,82.8,65.0,29.48,SSE,148,0.0,0.0,55,0.00,,,0.00,Wunderground v.1.12,2013-06-27 19:45:00,
2013-06-27 16:15:00,83.4,64.5,29.47,ESE,110,3.0,3.0,53,0.00,,,0.00,Wunderground v.1.12,2013-06-27 20:15:00,
2013-06-27 16:45:00,80.7,62.5,29.47,ESE,109,0.0,0.0,54,0.00,,,0.00,Wunderground v.1.12,2013-06-27 20:45:00,
2013-06-27 17:15:00,79.5,62.4,29.47,ESE,108,0.0,0.0,56,0.00,,,0.00,Wunderground v.1.12,2013-06-27 21:15:00,
2013-06-27 18:15:00,77.7,62.2,29.47,ENE,63,0.0,0.0,59,0.00,,,0.00,Wunderground v.1.12,2013-06-27 22:15:00,
2013-06-27 18:45:00,76.8,61.9,29.47,ENE,64,0.0,0.0,60,0.00,,,0.00,Wunderground v.1.12,2013-06-27 22:45:00,
2013-06-27 19:15:00,75.8,61.4,29.47,ENE,64,0.0,0.0,61,0.00,,,0.00,Wunderground v.1.12,2013-06-27 23:15:00,
2013-06-27 19:45:00,74.5,60.2,29.46,ENE,64,0.0,0.0,61,0.00,,,0.00,Wunderground v.1.12,2013-06-27 23:45:00,
2013-06-27 20:45:00,71.9,59.1,29.46,ENE,63,3.0,3.0,64,0.00,,,0.00,Wunderground v.1.12,2013-06-28 00:45:00,
2013-06-27 21:15:00,70.7,58.4,29.46,ENE,63,0.0,0.0,65,0.00,,,0.00,Wunderground v.1.12,2013-06-28 01:15:00,
2013-06-27 21:45:00,70.1,57.8,29.47,ENE,64,0.0,0.0,65,0.00,,,0.00,Wunderground v.1.12,2013-06-28 01:45:00,
2013-06-27 22:15:00,70.2,57.9,29.47,NE,53,3.0,3.0,65,0.00,,,0.00,Wunderground v.1.12,2013-06-28 02:15:00,
2013-06-27 22:45:00,69.8,57.1,29.46,NE,47,1.0,1.0,64,0.00,,,0.00,Wunderground v.1.12,2013-06-28 02:45:00,
2013-06-27 23:15:00,69.2,56.9,29.47,NE,56,0.0,0.0,65,0.00,,,0.00,Wunderground v.1.12,2013-06-28 03:15:00,
2013-06-27 23:45:00,68.2,56.0,29.45,NE,49,1.0,1.0,65,0.00,,,0.00,Wunderground v.1.12,2013-06-28 03:45:00,